sensor_id;sensor_type;location;lat;lon;timestamp;temperature;humidity
39493;DHT22;25176;51.060;3.720;2023-07-08T00:01:04;23.90;61.00
39493;DHT22;25176;51.060;3.720;2023-07-08T00:03:30;23.80;61.50
39493;DHT22;25176;51.060;3.720;2023-07-08T00:05:55;23.80;61.40
39493;DHT22;25176;51.060;3.720;2023-07-08T00:08:21;23.70;61.40
39493;DHT22;25176;51.060;3.720;2023-07-08T00:10:47;23.60;61.60
39493;DHT22;25176;51.060;3.720;2023-07-08T00:13:12;23.60;61.70
39493;DHT22;25176;51.060;3.720;2023-07-08T00:15:39;23.50;61.50
39493;DHT22;25176;51.060;3.720;2023-07-08T00:18:12;23.50;62.00
39493;DHT22;25176;51.060;3.720;2023-07-08T00:20:39;23.70;61.60
39493;DHT22;25176;51.060;3.720;2023-07-08T00:23:04;23.60;61.40
39493;DHT22;25176;51.060;3.720;2023-07-08T00:25:30;23.50;61.50
39493;DHT22;25176;51.060;3.720;2023-07-08T00:27:56;23.30;61.90
39493;DHT22;25176;51.060;3.720;2023-07-08T00:30:29;23.20;62.30
39493;DHT22;25176;51.060;3.720;2023-07-08T00:32:55;23.10;62.40
39493;DHT22;25176;51.060;3.720;2023-07-08T00:35:22;23.10;62.40
39493;DHT22;25176;51.060;3.720;2023-07-08T00:37:51;23.00;62.30
39493;DHT22;25176;51.060;3.720;2023-07-08T00:40:19;23.00;62.20
39493;DHT22;25176;51.060;3.720;2023-07-08T00:42:45;23.00;62.10
39493;DHT22;25176;51.060;3.720;2023-07-08T00:45:20;22.90;62.20
39493;DHT22;25176;51.060;3.720;2023-07-08T00:47:50;22.90;62.30
39493;DHT22;25176;51.060;3.720;2023-07-08T00:50:16;22.80;62.40
39493;DHT22;25176;51.060;3.720;2023-07-08T00:52:42;22.80;62.50
39493;DHT22;25176;51.060;3.720;2023-07-08T00:55:08;22.90;62.30
39493;DHT22;25176;51.060;3.720;2023-07-08T00:57:35;23.00;62.10
39493;DHT22;25176;51.060;3.720;2023-07-08T01:00:06;23.00;62.00
39493;DHT22;25176;51.060;3.720;2023-07-08T01:02:35;22.90;62.10
39493;DHT22;25176;51.060;3.720;2023-07-08T01:05:02;22.80;62.50
39493;DHT22;25176;51.060;3.720;2023-07-08T01:07:29;22.80;62.60
39493;DHT22;25176;51.060;3.720;2023-07-08T01:09:58;22.70;62.80
39493;DHT22;25176;51.060;3.720;2023-07-08T01:12:27;22.70;62.90
39493;DHT22;25176;51.060;3.720;2023-07-08T01:14:54;22.80;62.80
39493;DHT22;25176;51.060;3.720;2023-07-08T01:17:21;22.80;62.40
39493;DHT22;25176;51.060;3.720;2023-07-08T01:19:47;22.70;62.60
39493;DHT22;25176;51.060;3.720;2023-07-08T01:22:13;22.70;62.70
39493;DHT22;25176;51.060;3.720;2023-07-08T01:24:40;22.70;62.80
39493;DHT22;25176;51.060;3.720;2023-07-08T01:27:07;22.80;62.60
39493;DHT22;25176;51.060;3.720;2023-07-08T01:29:33;22.90;62.30
39493;DHT22;25176;51.060;3.720;2023-07-08T01:31:59;22.90;62.00
39493;DHT22;25176;51.060;3.720;2023-07-08T01:34:33;22.90;62.00
39493;DHT22;25176;51.060;3.720;2023-07-08T01:37:00;22.90;62.20
39493;DHT22;25176;51.060;3.720;2023-07-08T01:39:28;23.00;61.90
39493;DHT22;25176;51.060;3.720;2023-07-08T01:41:55;22.80;62.00
39493;DHT22;25176;51.060;3.720;2023-07-08T01:44:21;22.80;62.20
39493;DHT22;25176;51.060;3.720;2023-07-08T01:46:47;22.60;62.50
39493;DHT22;25176;51.060;3.720;2023-07-08T01:49:12;22.40;63.20
39493;DHT22;25176;51.060;3.720;2023-07-08T01:51:39;22.20;63.80
39493;DHT22;25176;51.060;3.720;2023-07-08T01:54:04;22.20;63.60
39493;DHT22;25176;51.060;3.720;2023-07-08T01:56:30;22.40;63.40
39493;DHT22;25176;51.060;3.720;2023-07-08T01:58:55;22.40;63.70
39493;DHT22;25176;51.060;3.720;2023-07-08T02:01:21;22.50;63.00
39493;DHT22;25176;51.060;3.720;2023-07-08T02:03:46;22.40;63.10
39493;DHT22;25176;51.060;3.720;2023-07-08T02:06:12;22.30;63.30
39493;DHT22;25176;51.060;3.720;2023-07-08T02:08:37;22.20;63.40
39493;DHT22;25176;51.060;3.720;2023-07-08T02:11:03;22.10;63.70
39493;DHT22;25176;51.060;3.720;2023-07-08T02:13:28;22.20;63.80
39493;DHT22;25176;51.060;3.720;2023-07-08T02:15:54;22.30;63.60
39493;DHT22;25176;51.060;3.720;2023-07-08T02:18:19;22.30;63.90
39493;DHT22;25176;51.060;3.720;2023-07-08T02:20:45;22.20;63.70
39493;DHT22;25176;51.060;3.720;2023-07-08T02:23:11;22.20;63.90
39493;DHT22;25176;51.060;3.720;2023-07-08T02:25:36;22.10;64.00
39493;DHT22;25176;51.060;3.720;2023-07-08T02:28:02;22.00;64.30
39493;DHT22;25176;51.060;3.720;2023-07-08T02:30:28;22.00;64.20
39493;DHT22;25176;51.060;3.720;2023-07-08T02:32:53;22.00;64.10
39493;DHT22;25176;51.060;3.720;2023-07-08T02:35:25;22.10;64.00
39493;DHT22;25176;51.060;3.720;2023-07-08T02:37:52;22.00;64.00
39493;DHT22;25176;51.060;3.720;2023-07-08T02:40:18;21.80;64.50
39493;DHT22;25176;51.060;3.720;2023-07-08T02:42:43;21.70;65.00
39493;DHT22;25176;51.060;3.720;2023-07-08T02:45:09;21.60;64.90
39493;DHT22;25176;51.060;3.720;2023-07-08T02:47:35;21.60;65.40
39493;DHT22;25176;51.060;3.720;2023-07-08T02:50:00;21.60;65.20
39493;DHT22;25176;51.060;3.720;2023-07-08T02:52:26;21.60;65.00
39493;DHT22;25176;51.060;3.720;2023-07-08T02:54:51;21.80;64.60
39493;DHT22;25176;51.060;3.720;2023-07-08T02:57:17;21.90;64.70
39493;DHT22;25176;51.060;3.720;2023-07-08T02:59:43;22.00;64.30
39493;DHT22;25176;51.060;3.720;2023-07-08T03:02:08;21.80;64.70
39493;DHT22;25176;51.060;3.720;2023-07-08T03:04:33;21.70;65.00
39493;DHT22;25176;51.060;3.720;2023-07-08T03:07:04;21.70;65.00
39493;DHT22;25176;51.060;3.720;2023-07-08T03:09:29;21.60;65.30
39493;DHT22;25176;51.060;3.720;2023-07-08T03:11:57;21.40;65.80
39493;DHT22;25176;51.060;3.720;2023-07-08T03:14:23;21.30;65.90
39493;DHT22;25176;51.060;3.720;2023-07-08T03:16:48;21.30;66.50
39493;DHT22;25176;51.060;3.720;2023-07-08T03:19:14;21.20;66.30
39493;DHT22;25176;51.060;3.720;2023-07-08T03:21:40;21.20;66.60
39493;DHT22;25176;51.060;3.720;2023-07-08T03:24:08;21.10;66.60
39493;DHT22;25176;51.060;3.720;2023-07-08T03:26:36;21.00;67.00
39493;DHT22;25176;51.060;3.720;2023-07-08T03:29:02;21.00;67.10
39493;DHT22;25176;51.060;3.720;2023-07-08T03:31:27;21.00;67.20
39493;DHT22;25176;51.060;3.720;2023-07-08T03:33:53;21.00;67.20
39493;DHT22;25176;51.060;3.720;2023-07-08T03:36:18;20.90;67.20
39493;DHT22;25176;51.060;3.720;2023-07-08T03:38:51;20.90;67.50
39493;DHT22;25176;51.060;3.720;2023-07-08T03:41:16;20.90;67.50
39493;DHT22;25176;51.060;3.720;2023-07-08T03:43:42;20.80;67.90
39493;DHT22;25176;51.060;3.720;2023-07-08T03:46:11;20.80;67.80
39493;DHT22;25176;51.060;3.720;2023-07-08T03:48:37;20.90;67.60
39493;DHT22;25176;51.060;3.720;2023-07-08T03:51:03;20.90;67.50
39493;DHT22;25176;51.060;3.720;2023-07-08T03:53:28;21.00;67.20
39493;DHT22;25176;51.060;3.720;2023-07-08T03:55:54;21.10;67.40
39493;DHT22;25176;51.060;3.720;2023-07-08T03:58:19;21.20;67.00
39493;DHT22;25176;51.060;3.720;2023-07-08T04:00:45;21.30;66.80
39493;DHT22;25176;51.060;3.720;2023-07-08T04:03:11;21.30;66.60
39493;DHT22;25176;51.060;3.720;2023-07-08T04:05:37;21.30;66.80
39493;DHT22;25176;51.060;3.720;2023-07-08T04:08:02;21.20;67.10
39493;DHT22;25176;51.060;3.720;2023-07-08T04:10:28;21.20;66.90
39493;DHT22;25176;51.060;3.720;2023-07-08T04:12:53;21.20;66.80
39493;DHT22;25176;51.060;3.720;2023-07-08T04:15:19;21.10;67.10
39493;DHT22;25176;51.060;3.720;2023-07-08T04:17:45;21.00;67.40
39493;DHT22;25176;51.060;3.720;2023-07-08T04:20:13;21.10;67.60
39493;DHT22;25176;51.060;3.720;2023-07-08T04:22:39;20.90;67.90
39493;DHT22;25176;51.060;3.720;2023-07-08T04:25:05;20.70;68.80
39493;DHT22;25176;51.060;3.720;2023-07-08T04:27:31;20.80;68.80
39493;DHT22;25176;51.060;3.720;2023-07-08T04:29:57;20.70;68.80
39493;DHT22;25176;51.060;3.720;2023-07-08T04:32:22;20.60;69.40
39493;DHT22;25176;51.060;3.720;2023-07-08T04:34:52;20.60;69.10
39493;DHT22;25176;51.060;3.720;2023-07-08T04:37:18;20.50;69.50
39493;DHT22;25176;51.060;3.720;2023-07-08T04:39:44;20.50;69.60
39493;DHT22;25176;51.060;3.720;2023-07-08T04:42:10;20.50;69.70
39493;DHT22;25176;51.060;3.720;2023-07-08T04:44:38;20.60;69.30
39493;DHT22;25176;51.060;3.720;2023-07-08T04:47:03;20.50;69.80
39493;DHT22;25176;51.060;3.720;2023-07-08T04:49:29;20.40;70.10
39493;DHT22;25176;51.060;3.720;2023-07-08T04:51:59;20.60;70.00
39493;DHT22;25176;51.060;3.720;2023-07-08T04:54:24;20.60;69.70
39493;DHT22;25176;51.060;3.720;2023-07-08T04:56:50;20.70;70.20
39493;DHT22;25176;51.060;3.720;2023-07-08T04:59:19;20.60;69.70
39493;DHT22;25176;51.060;3.720;2023-07-08T05:01:45;20.50;70.20
39493;DHT22;25176;51.060;3.720;2023-07-08T05:04:14;20.50;70.40
39493;DHT22;25176;51.060;3.720;2023-07-08T05:06:40;20.50;70.70
39493;DHT22;25176;51.060;3.720;2023-07-08T05:09:05;20.60;70.20
39493;DHT22;25176;51.060;3.720;2023-07-08T05:11:31;20.60;70.10
39493;DHT22;25176;51.060;3.720;2023-07-08T05:13:56;20.60;70.40
39493;DHT22;25176;51.060;3.720;2023-07-08T05:16:22;20.60;70.40
39493;DHT22;25176;51.060;3.720;2023-07-08T05:18:47;20.50;71.20
39493;DHT22;25176;51.060;3.720;2023-07-08T05:21:13;20.50;70.90
39493;DHT22;25176;51.060;3.720;2023-07-08T05:23:39;20.60;70.70
39493;DHT22;25176;51.060;3.720;2023-07-08T05:26:05;20.70;70.20
39493;DHT22;25176;51.060;3.720;2023-07-08T05:28:32;20.80;69.80
39493;DHT22;25176;51.060;3.720;2023-07-08T05:30:58;20.90;69.70
39493;DHT22;25176;51.060;3.720;2023-07-08T05:33:24;20.80;69.80
39493;DHT22;25176;51.060;3.720;2023-07-08T05:35:50;20.90;70.00
39493;DHT22;25176;51.060;3.720;2023-07-08T05:38:15;21.00;69.90
39493;DHT22;25176;51.060;3.720;2023-07-08T05:40:41;21.20;69.20
39493;DHT22;25176;51.060;3.720;2023-07-08T05:43:06;21.20;69.10
39493;DHT22;25176;51.060;3.720;2023-07-08T05:45:32;21.40;69.40
39493;DHT22;25176;51.060;3.720;2023-07-08T05:47:57;21.40;69.00
39493;DHT22;25176;51.060;3.720;2023-07-08T05:50:23;21.40;69.00
39493;DHT22;25176;51.060;3.720;2023-07-08T05:52:48;21.50;68.80
39493;DHT22;25176;51.060;3.720;2023-07-08T05:55:14;21.60;68.60
39493;DHT22;25176;51.060;3.720;2023-07-08T05:57:39;21.70;68.70
39493;DHT22;25176;51.060;3.720;2023-07-08T06:00:05;21.80;68.50
39493;DHT22;25176;51.060;3.720;2023-07-08T06:02:31;21.80;68.30
39493;DHT22;25176;51.060;3.720;2023-07-08T06:04:56;21.80;67.70
39493;DHT22;25176;51.060;3.720;2023-07-08T06:07:22;21.80;68.00
39493;DHT22;25176;51.060;3.720;2023-07-08T06:09:47;21.90;68.00
39493;DHT22;25176;51.060;3.720;2023-07-08T06:12:13;22.00;68.10
39493;DHT22;25176;51.060;3.720;2023-07-08T06:14:38;22.10;67.70
39493;DHT22;25176;51.060;3.720;2023-07-08T06:17:04;22.20;67.70
39493;DHT22;25176;51.060;3.720;2023-07-08T06:19:30;22.10;68.20
39493;DHT22;25176;51.060;3.720;2023-07-08T06:21:55;22.30;68.10
39493;DHT22;25176;51.060;3.720;2023-07-08T06:24:21;22.40;67.80
39493;DHT22;25176;51.060;3.720;2023-07-08T06:26:46;22.60;67.60
39493;DHT22;25176;51.060;3.720;2023-07-08T06:29:12;22.60;67.30
39493;DHT22;25176;51.060;3.720;2023-07-08T06:31:37;22.70;67.10
39493;DHT22;25176;51.060;3.720;2023-07-08T06:34:03;22.90;67.20
39493;DHT22;25176;51.060;3.720;2023-07-08T06:36:29;23.10;66.90
39493;DHT22;25176;51.060;3.720;2023-07-08T06:38:55;23.30;66.30
39493;DHT22;25176;51.060;3.720;2023-07-08T06:41:20;23.40;66.10
39493;DHT22;25176;51.060;3.720;2023-07-08T06:43:46;23.40;66.20
39493;DHT22;25176;51.060;3.720;2023-07-08T06:46:12;23.50;66.30
39493;DHT22;25176;51.060;3.720;2023-07-08T06:48:37;23.60;66.00
39493;DHT22;25176;51.060;3.720;2023-07-08T06:51:03;24.10;65.60
39493;DHT22;25176;51.060;3.720;2023-07-08T06:53:28;25.60;62.80
39493;DHT22;25176;51.060;3.720;2023-07-08T06:55:54;27.40;60.10
39493;DHT22;25176;51.060;3.720;2023-07-08T06:58:19;29.30;56.80
39493;DHT22;25176;51.060;3.720;2023-07-08T07:00:45;30.50;54.80
39493;DHT22;25176;51.060;3.720;2023-07-08T07:03:11;32.10;53.50
39493;DHT22;25176;51.060;3.720;2023-07-08T07:05:37;34.00;51.40
39493;DHT22;25176;51.060;3.720;2023-07-08T07:08:03;35.00;49.30
39493;DHT22;25176;51.060;3.720;2023-07-08T07:10:29;36.00;48.20
39493;DHT22;25176;51.060;3.720;2023-07-08T07:12:54;37.00;47.00
39493;DHT22;25176;51.060;3.720;2023-07-08T07:15:20;37.90;45.90
39493;DHT22;25176;51.060;3.720;2023-07-08T07:17:46;38.50;45.70
39493;DHT22;25176;51.060;3.720;2023-07-08T07:20:11;39.60;44.60
39493;DHT22;25176;51.060;3.720;2023-07-08T07:22:37;39.90;44.10
39493;DHT22;25176;51.060;3.720;2023-07-08T07:25:03;40.40;43.50
39493;DHT22;25176;51.060;3.720;2023-07-08T07:27:28;40.10;43.30
39493;DHT22;25176;51.060;3.720;2023-07-08T07:29:54;41.40;43.00
39493;DHT22;25176;51.060;3.720;2023-07-08T07:32:22;42.10;42.10
39493;DHT22;25176;51.060;3.720;2023-07-08T07:34:49;43.30;41.60
39493;DHT22;25176;51.060;3.720;2023-07-08T07:37:15;44.00;41.00
39493;DHT22;25176;51.060;3.720;2023-07-08T07:39:42;44.50;40.50
39493;DHT22;25176;51.060;3.720;2023-07-08T07:42:08;45.40;39.70
39493;DHT22;25176;51.060;3.720;2023-07-08T07:44:34;45.60;39.50
39493;DHT22;25176;51.060;3.720;2023-07-08T07:47:01;46.20;39.10
39493;DHT22;25176;51.060;3.720;2023-07-08T07:49:27;47.10;38.60
39493;DHT22;25176;51.060;3.720;2023-07-08T07:51:52;46.00;38.10
39493;DHT22;25176;51.060;3.720;2023-07-08T07:54:17;46.30;38.40
39493;DHT22;25176;51.060;3.720;2023-07-08T07:56:43;46.50;38.10
39493;DHT22;25176;51.060;3.720;2023-07-08T07:59:09;46.40;38.50
39493;DHT22;25176;51.060;3.720;2023-07-08T08:01:35;47.50;37.90
39493;DHT22;25176;51.060;3.720;2023-07-08T08:04:00;48.40;37.30
39493;DHT22;25176;51.060;3.720;2023-07-08T08:06:26;48.60;37.40
39493;DHT22;25176;51.060;3.720;2023-07-08T08:08:51;49.40;36.80
39493;DHT22;25176;51.060;3.720;2023-07-08T08:11:17;48.80;37.00
39493;DHT22;25176;51.060;3.720;2023-07-08T08:13:42;50.00;36.60
39493;DHT22;25176;51.060;3.720;2023-07-08T08:16:08;50.70;36.50
39493;DHT22;25176;51.060;3.720;2023-07-08T08:18:33;51.60;35.90
39493;DHT22;25176;51.060;3.720;2023-07-08T08:20:59;48.90;36.00
39493;DHT22;25176;51.060;3.720;2023-07-08T08:23:25;48.80;36.60
39493;DHT22;25176;51.060;3.720;2023-07-08T08:25:50;50.00;36.40
39493;DHT22;25176;51.060;3.720;2023-07-08T08:28:16;50.80;36.00
39493;DHT22;25176;51.060;3.720;2023-07-08T08:30:41;51.70;35.80
39493;DHT22;25176;51.060;3.720;2023-07-08T08:33:07;52.80;35.50
39493;DHT22;25176;51.060;3.720;2023-07-08T08:35:32;53.10;34.80
39493;DHT22;25176;51.060;3.720;2023-07-08T08:37:58;52.70;34.60
39493;DHT22;25176;51.060;3.720;2023-07-08T08:40:23;52.60;34.60
39493;DHT22;25176;51.060;3.720;2023-07-08T08:45:27;52.70;34.60
39493;DHT22;25176;51.060;3.720;2023-07-08T08:48:00;52.20;34.50
39493;DHT22;25176;51.060;3.720;2023-07-08T08:50:31;52.60;34.60
39493;DHT22;25176;51.060;3.720;2023-07-08T08:52:58;53.30;34.30
39493;DHT22;25176;51.060;3.720;2023-07-08T08:55:24;54.20;34.10
39493;DHT22;25176;51.060;3.720;2023-07-08T08:57:55;54.30;33.60
39493;DHT22;25176;51.060;3.720;2023-07-08T09:00:44;54.80;33.60
39493;DHT22;25176;51.060;3.720;2023-07-08T09:03:12;55.30;33.50
39493;DHT22;25176;51.060;3.720;2023-07-08T09:05:40;56.30;33.20
39493;DHT22;25176;51.060;3.720;2023-07-08T09:10:48;57.00;32.60
39493;DHT22;25176;51.060;3.720;2023-07-08T09:13:17;57.30;32.50
39493;DHT22;25176;51.060;3.720;2023-07-08T09:15:44;57.70;32.00
39493;DHT22;25176;51.060;3.720;2023-07-08T09:18:30;58.10;31.80
39493;DHT22;25176;51.060;3.720;2023-07-08T09:20:57;58.60;31.70
39493;DHT22;25176;51.060;3.720;2023-07-08T09:23:27;59.00;31.40
39493;DHT22;25176;51.060;3.720;2023-07-08T09:26:05;58.60;31.20
39493;DHT22;25176;51.060;3.720;2023-07-08T09:28:36;58.50;31.10
39493;DHT22;25176;51.060;3.720;2023-07-08T09:31:03;59.00;31.10
39493;DHT22;25176;51.060;3.720;2023-07-08T09:33:30;59.80;30.80
39493;DHT22;25176;51.060;3.720;2023-07-08T09:35:56;60.20;30.50
39493;DHT22;25176;51.060;3.720;2023-07-08T09:38:22;58.80;30.70
39493;DHT22;25176;51.060;3.720;2023-07-08T09:40:48;59.10;30.70
39493;DHT22;25176;51.060;3.720;2023-07-08T09:43:30;57.80;30.50
39493;DHT22;25176;51.060;3.720;2023-07-08T09:45:59;58.00;30.00
39493;DHT22;25176;51.060;3.720;2023-07-08T09:48:26;58.40;30.40
39493;DHT22;25176;51.060;3.720;2023-07-08T09:50:52;58.80;30.30
39493;DHT22;25176;51.060;3.720;2023-07-08T09:53:18;59.50;30.10
39493;DHT22;25176;51.060;3.720;2023-07-08T09:55:44;60.20;30.20
39493;DHT22;25176;51.060;3.720;2023-07-08T09:58:51;59.40;29.90
39493;DHT22;25176;51.060;3.720;2023-07-08T10:01:01;58.80;30.30
39493;DHT22;25176;51.060;3.720;2023-07-08T10:03:28;56.80;30.10
39493;DHT22;25176;51.060;3.720;2023-07-08T10:05:56;57.80;30.50
39493;DHT22;25176;51.060;3.720;2023-07-08T10:08:23;59.10;30.30
39493;DHT22;25176;51.060;3.720;2023-07-08T10:11:00;57.40;30.50
39493;DHT22;25176;51.060;3.720;2023-07-08T10:13:34;58.80;30.80
39493;DHT22;25176;51.060;3.720;2023-07-08T10:18:41;58.90;30.30
39493;DHT22;25176;51.060;3.720;2023-07-08T10:26:17;54.70;31.30
39493;DHT22;25176;51.060;3.720;2023-07-08T10:33:52;55.10;31.00
39493;DHT22;25176;51.060;3.720;2023-07-08T10:36:27;53.40;31.30
39493;DHT22;25176;51.060;3.720;2023-07-08T10:44:21;50.80;31.40
39493;DHT22;25176;51.060;3.720;2023-07-08T10:52:12;47.10;32.80
39493;DHT22;25176;51.060;3.720;2023-07-08T10:54:56;47.00;32.50
39493;DHT22;25176;51.060;3.720;2023-07-08T11:00:13;44.60;34.10
39493;DHT22;25176;51.060;3.720;2023-07-08T11:05:33;42.00;35.50
39493;DHT22;25176;51.060;3.720;2023-07-08T11:08:07;41.60;36.20
39493;DHT22;25176;51.060;3.720;2023-07-08T11:10:54;40.20;37.50
39493;DHT22;25176;51.060;3.720;2023-07-08T11:13:21;41.00;36.80
39493;DHT22;25176;51.060;3.720;2023-07-08T11:15:57;41.30;36.50
39493;DHT22;25176;51.060;3.720;2023-07-08T11:26:38;36.50;39.70
39493;DHT22;25176;51.060;3.720;2023-07-08T11:29:10;36.10;40.40
39493;DHT22;25176;51.060;3.720;2023-07-08T11:31:39;36.40;40.50
39493;DHT22;25176;51.060;3.720;2023-07-08T11:34:04;36.50;40.20
39493;DHT22;25176;51.060;3.720;2023-07-08T11:36:30;36.20;40.70
39493;DHT22;25176;51.060;3.720;2023-07-08T11:38:56;35.60;41.30
39493;DHT22;25176;51.060;3.720;2023-07-08T11:41:23;35.10;41.50
39493;DHT22;25176;51.060;3.720;2023-07-08T11:43:56;35.10;41.80
39493;DHT22;25176;51.060;3.720;2023-07-08T11:46:26;35.30;41.60
39493;DHT22;25176;51.060;3.720;2023-07-08T11:48:54;35.10;42.40
39493;DHT22;25176;51.060;3.720;2023-07-08T11:51:27;35.50;42.30
39493;DHT22;25176;51.060;3.720;2023-07-08T11:56:28;35.10;42.50
39493;DHT22;25176;51.060;3.720;2023-07-08T11:59:16;35.00;42.70
39493;DHT22;25176;51.060;3.720;2023-07-08T12:01:53;35.20;42.30
39493;DHT22;25176;51.060;3.720;2023-07-08T12:04:30;35.30;42.80
39493;DHT22;25176;51.060;3.720;2023-07-08T12:07:06;34.80;42.70
39493;DHT22;25176;51.060;3.720;2023-07-08T12:09:38;34.90;42.90
39493;DHT22;25176;51.060;3.720;2023-07-08T12:12:20;35.20;43.00
39493;DHT22;25176;51.060;3.720;2023-07-08T12:14:46;35.40;42.10
39493;DHT22;25176;51.060;3.720;2023-07-08T12:17:12;35.20;42.30
39493;DHT22;25176;51.060;3.720;2023-07-08T12:19:37;35.20;42.50
39493;DHT22;25176;51.060;3.720;2023-07-08T12:22:08;35.20;42.60
39493;DHT22;25176;51.060;3.720;2023-07-08T12:24:33;34.80;43.30
39493;DHT22;25176;51.060;3.720;2023-07-08T12:26:59;34.70;43.60
39493;DHT22;25176;51.060;3.720;2023-07-08T12:29:24;34.40;44.00
39493;DHT22;25176;51.060;3.720;2023-07-08T12:31:50;34.60;44.00
39493;DHT22;25176;51.060;3.720;2023-07-08T12:34:16;34.60;44.00
39493;DHT22;25176;51.060;3.720;2023-07-08T12:36:42;34.40;44.40
39493;DHT22;25176;51.060;3.720;2023-07-08T12:39:09;34.70;44.30
39493;DHT22;25176;51.060;3.720;2023-07-08T12:41:36;34.90;44.50
39493;DHT22;25176;51.060;3.720;2023-07-08T12:44:01;35.00;44.20
39493;DHT22;25176;51.060;3.720;2023-07-08T12:46:27;35.10;44.40
39493;DHT22;25176;51.060;3.720;2023-07-08T12:48:53;35.40;44.50
39493;DHT22;25176;51.060;3.720;2023-07-08T12:51:20;35.70;44.10
39493;DHT22;25176;51.060;3.720;2023-07-08T12:53:49;36.10;43.60
39493;DHT22;25176;51.060;3.720;2023-07-08T12:56:14;36.10;43.40
39493;DHT22;25176;51.060;3.720;2023-07-08T12:58:41;36.30;43.30
39493;DHT22;25176;51.060;3.720;2023-07-08T13:01:07;36.60;43.00
39493;DHT22;25176;51.060;3.720;2023-07-08T13:03:34;37.00;42.80
39493;DHT22;25176;51.060;3.720;2023-07-08T13:06:01;37.10;42.80
39493;DHT22;25176;51.060;3.720;2023-07-08T13:08:27;37.00;43.00
39493;DHT22;25176;51.060;3.720;2023-07-08T13:10:58;37.20;42.70
39493;DHT22;25176;51.060;3.720;2023-07-08T13:13:28;37.30;42.50
39493;DHT22;25176;51.060;3.720;2023-07-08T13:15:55;37.30;42.50
39493;DHT22;25176;51.060;3.720;2023-07-08T13:18:33;37.30;42.60
39493;DHT22;25176;51.060;3.720;2023-07-08T13:20:59;37.20;43.00
39493;DHT22;25176;51.060;3.720;2023-07-08T13:23:26;37.40;42.90
39493;DHT22;25176;51.060;3.720;2023-07-08T13:25:52;37.60;42.60
39493;DHT22;25176;51.060;3.720;2023-07-08T13:28:19;37.20;42.60
39493;DHT22;25176;51.060;3.720;2023-07-08T13:33:18;37.30;42.90
39493;DHT22;25176;51.060;3.720;2023-07-08T13:35:43;37.50;42.90
39493;DHT22;25176;51.060;3.720;2023-07-08T13:38:13;37.60;42.70
39493;DHT22;25176;51.060;3.720;2023-07-08T13:40:40;37.30;43.20
39493;DHT22;25176;51.060;3.720;2023-07-08T13:43:07;37.60;43.20
39493;DHT22;25176;51.060;3.720;2023-07-08T13:45:32;37.70;43.00
39493;DHT22;25176;51.060;3.720;2023-07-08T13:48:13;37.80;43.20
39493;DHT22;25176;51.060;3.720;2023-07-08T13:50:46;38.00;42.90
39493;DHT22;25176;51.060;3.720;2023-07-08T13:53:22;37.70;43.40
39493;DHT22;25176;51.060;3.720;2023-07-08T13:55:48;36.80;44.20
39493;DHT22;25176;51.060;3.720;2023-07-08T13:58:15;36.60;44.70
39493;DHT22;25176;51.060;3.720;2023-07-08T14:00:41;36.70;44.80
39493;DHT22;25176;51.060;3.720;2023-07-08T14:03:12;36.80;44.70
39493;DHT22;25176;51.060;3.720;2023-07-08T14:05:40;36.70;44.90
39493;DHT22;25176;51.060;3.720;2023-07-08T14:08:13;36.90;44.60
39493;DHT22;25176;51.060;3.720;2023-07-08T14:10:39;36.70;44.80
39493;DHT22;25176;51.060;3.720;2023-07-08T14:13:04;36.60;45.00
39493;DHT22;25176;51.060;3.720;2023-07-08T14:15:30;36.90;45.30
39493;DHT22;25176;51.060;3.720;2023-07-08T14:17:55;36.90;45.20
39493;DHT22;25176;51.060;3.720;2023-07-08T14:20:21;36.90;45.50
39493;DHT22;25176;51.060;3.720;2023-07-08T14:22:48;36.90;45.50
39493;DHT22;25176;51.060;3.720;2023-07-08T14:25:16;36.90;46.00
39493;DHT22;25176;51.060;3.720;2023-07-08T14:27:42;36.70;46.50
39493;DHT22;25176;51.060;3.720;2023-07-08T14:30:08;36.80;46.50
39493;DHT22;25176;51.060;3.720;2023-07-08T14:32:37;36.50;46.60
39493;DHT22;25176;51.060;3.720;2023-07-08T14:35:15;36.40;46.90
39493;DHT22;25176;51.060;3.720;2023-07-08T14:37:41;36.30;46.70
39493;DHT22;25176;51.060;3.720;2023-07-08T14:40:29;36.30;46.60
39493;DHT22;25176;51.060;3.720;2023-07-08T14:42:59;36.00;47.10
39493;DHT22;25176;51.060;3.720;2023-07-08T14:45:26;35.90;47.50
39493;DHT22;25176;51.060;3.720;2023-07-08T14:47:51;35.70;47.90
39493;DHT22;25176;51.060;3.720;2023-07-08T14:50:17;35.70;48.50
39493;DHT22;25176;51.060;3.720;2023-07-08T14:52:43;35.60;48.70
39493;DHT22;25176;51.060;3.720;2023-07-08T14:55:09;35.60;49.40
39493;DHT22;25176;51.060;3.720;2023-07-08T14:57:40;35.30;49.60
39493;DHT22;25176;51.060;3.720;2023-07-08T15:00:08;35.30;49.80
39493;DHT22;25176;51.060;3.720;2023-07-08T15:02:35;35.20;50.20
39493;DHT22;25176;51.060;3.720;2023-07-08T15:05:00;35.10;49.80
39493;DHT22;25176;51.060;3.720;2023-07-08T15:07:26;35.10;49.50
39493;DHT22;25176;51.060;3.720;2023-07-08T15:09:52;35.10;49.40
39493;DHT22;25176;51.060;3.720;2023-07-08T15:12:17;35.20;49.00
39493;DHT22;25176;51.060;3.720;2023-07-08T15:14:43;35.10;49.20
39493;DHT22;25176;51.060;3.720;2023-07-08T15:17:09;35.20;49.60
39493;DHT22;25176;51.060;3.720;2023-07-08T15:19:37;35.10;49.80
39493;DHT22;25176;51.060;3.720;2023-07-08T15:22:03;35.00;50.10
39493;DHT22;25176;51.060;3.720;2023-07-08T15:24:29;35.00;50.20
39493;DHT22;25176;51.060;3.720;2023-07-08T15:26:54;34.90;50.90
39493;DHT22;25176;51.060;3.720;2023-07-08T15:29:21;34.80;50.80
39493;DHT22;25176;51.060;3.720;2023-07-08T15:31:47;34.80;50.70
39493;DHT22;25176;51.060;3.720;2023-07-08T15:34:14;34.80;50.50
39493;DHT22;25176;51.060;3.720;2023-07-08T15:36:40;35.00;50.50
39493;DHT22;25176;51.060;3.720;2023-07-08T15:39:05;35.00;50.60
39493;DHT22;25176;51.060;3.720;2023-07-08T15:41:31;35.00;50.70
39493;DHT22;25176;51.060;3.720;2023-07-08T15:43:58;35.00;51.10
39493;DHT22;25176;51.060;3.720;2023-07-08T15:46:26;34.80;51.40
39493;DHT22;25176;51.060;3.720;2023-07-08T15:48:53;34.60;52.10
39493;DHT22;25176;51.060;3.720;2023-07-08T15:51:18;34.50;51.90
39493;DHT22;25176;51.060;3.720;2023-07-08T15:53:44;34.70;51.70
39493;DHT22;25176;51.060;3.720;2023-07-08T15:56:13;34.70;51.90
39493;DHT22;25176;51.060;3.720;2023-07-08T15:58:40;34.60;52.10
39493;DHT22;25176;51.060;3.720;2023-07-08T16:01:07;34.40;52.40
39493;DHT22;25176;51.060;3.720;2023-07-08T16:03:35;34.40;52.10
39493;DHT22;25176;51.060;3.720;2023-07-08T16:06:01;34.40;52.30
39493;DHT22;25176;51.060;3.720;2023-07-08T16:08:27;34.40;52.30
39493;DHT22;25176;51.060;3.720;2023-07-08T16:10:57;34.40;52.00
39493;DHT22;25176;51.060;3.720;2023-07-08T16:13:24;34.40;51.50
39493;DHT22;25176;51.060;3.720;2023-07-08T16:15:51;34.30;51.70
39493;DHT22;25176;51.060;3.720;2023-07-08T16:18:16;34.30;52.00